sensor_id;sensor_type;location;lat;lon;timestamp;P1;durP1;ratioP1;P2;durP2;ratioP2
29938;SDS011;16799;50.844;5.304;2024-02-04T00:00:22;16.70;;;13.00;;
29938;SDS011;16799;50.844;5.304;2024-02-04T00:02:47;16.97;;;11.90;;
29938;SDS011;16799;50.844;5.304;2024-02-04T00:05:13;15.53;;;10.73;;
29938;SDS011;16799;50.844;5.304;2024-02-04T00:07:39;17.50;;;12.83;;
29938;SDS011;16799;50.844;5.304;2024-02-04T00:10:05;20.43;;;11.53;;
29938;SDS011;16799;50.844;5.304;2024-02-04T00:12:31;15.67;;;12.17;;
29938;SDS011;16799;50.844;5.304;2024-02-04T00:14:56;24.47;;;13.30;;
29938;SDS011;16799;50.844;5.304;2024-02-04T00:17:22;13.57;;;10.93;;
29938;SDS011;16799;50.844;5.304;2024-02-04T00:19:48;19.63;;;11.63;;
29938;SDS011;16799;50.844;5.304;2024-02-04T00:22:13;23.50;;;13.10;;
29938;SDS011;16799;50.844;5.304;2024-02-04T00:24:42;20.57;;;11.17;;
29938;SDS011;16799;50.844;5.304;2024-02-04T00:27:07;14.93;;;11.70;;
29938;SDS011;16799;50.844;5.304;2024-02-04T00:29:33;20.00;;;11.80;;
29938;SDS011;16799;50.844;5.304;2024-02-04T00:31:59;20.53;;;13.50;;
29938;SDS011;16799;50.844;5.304;2024-02-04T00:34:25;14.60;;;11.87;;
29938;SDS011;16799;50.844;5.304;2024-02-04T00:36:50;14.33;;;11.30;;
29938;SDS011;16799;50.844;5.304;2024-02-04T00:39:16;13.73;;;10.40;;
29938;SDS011;16799;50.844;5.304;2024-02-04T00:41:41;13.97;;;10.83;;
29938;SDS011;16799;50.844;5.304;2024-02-04T00:44:07;15.87;;;11.80;;
29938;SDS011;16799;50.844;5.304;2024-02-04T00:46:33;16.33;;;9.70;;
29938;SDS011;16799;50.844;5.304;2024-02-04T00:48:58;13.70;;;10.33;;
29938;SDS011;16799;50.844;5.304;2024-02-04T00:51:24;13.77;;;10.80;;
29938;SDS011;16799;50.844;5.304;2024-02-04T00:53:50;16.73;;;12.20;;
29938;SDS011;16799;50.844;5.304;2024-02-04T00:56:15;15.27;;;11.30;;
29938;SDS011;16799;50.844;5.304;2024-02-04T00:58:41;13.27;;;10.40;;
29938;SDS011;16799;50.844;5.304;2024-02-04T01:01:06;15.33;;;12.10;;
29938;SDS011;16799;50.844;5.304;2024-02-04T01:03:32;16.33;;;12.37;;
29938;SDS011;16799;50.844;5.304;2024-02-04T01:05:58;13.40;;;11.23;;
29938;SDS011;16799;50.844;5.304;2024-02-04T01:08:24;16.67;;;11.77;;
29938;SDS011;16799;50.844;5.304;2024-02-04T01:10:49;14.43;;;11.10;;
29938;SDS011;16799;50.844;5.304;2024-02-04T01:13:18;17.30;;;10.50;;
29938;SDS011;16799;50.844;5.304;2024-02-04T01:15:43;21.13;;;11.97;;
29938;SDS011;16799;50.844;5.304;2024-02-04T01:18:09;13.17;;;11.83;;
29938;SDS011;16799;50.844;5.304;2024-02-04T01:20:35;13.30;;;9.60;;
29938;SDS011;16799;50.844;5.304;2024-02-04T01:23:00;14.23;;;11.37;;
29938;SDS011;16799;50.844;5.304;2024-02-04T01:25:26;18.10;;;12.40;;
29938;SDS011;16799;50.844;5.304;2024-02-04T01:27:52;11.80;;;9.27;;
29938;SDS011;16799;50.844;5.304;2024-02-04T01:30:18;13.60;;;10.37;;
29938;SDS011;16799;50.844;5.304;2024-02-04T01:32:43;14.70;;;10.87;;
29938;SDS011;16799;50.844;5.304;2024-02-04T01:35:10;18.80;;;10.80;;
29938;SDS011;16799;50.844;5.304;2024-02-04T01:37:35;15.03;;;9.10;;
29938;SDS011;16799;50.844;5.304;2024-02-04T01:40:01;14.23;;;10.40;;
29938;SDS011;16799;50.844;5.304;2024-02-04T01:42:27;11.33;;;8.70;;
29938;SDS011;16799;50.844;5.304;2024-02-04T01:44:53;14.00;;;8.80;;
29938;SDS011;16799;50.844;5.304;2024-02-04T01:47:18;11.70;;;9.30;;
29938;SDS011;16799;50.844;5.304;2024-02-04T01:49:45;16.80;;;10.47;;
29938;SDS011;16799;50.844;5.304;2024-02-04T01:52:11;12.53;;;8.50;;
29938;SDS011;16799;50.844;5.304;2024-02-04T01:54:38;12.77;;;9.80;;
29938;SDS011;16799;50.844;5.304;2024-02-04T01:57:06;11.77;;;8.50;;
29938;SDS011;16799;50.844;5.304;2024-02-04T01:59:34;15.40;;;9.13;;
29938;SDS011;16799;50.844;5.304;2024-02-04T02:02:00;9.30;;;7.97;;
29938;SDS011;16799;50.844;5.304;2024-02-04T02:04:26;10.70;;;8.60;;
29938;SDS011;16799;50.844;5.304;2024-02-04T02:06:53;10.10;;;9.17;;
29938;SDS011;16799;50.844;5.304;2024-02-04T02:09:19;18.07;;;8.03;;
29938;SDS011;16799;50.844;5.304;2024-02-04T02:14:39;9.80;;;8.50;;
29938;SDS011;16799;50.844;5.304;2024-02-04T02:17:12;8.90;;;8.00;;
29938;SDS011;16799;50.844;5.304;2024-02-04T02:24:57;12.33;;;7.97;;
29938;SDS011;16799;50.844;5.304;2024-02-04T02:27:24;11.40;;;8.70;;
29938;SDS011;16799;50.844;5.304;2024-02-04T02:29:50;8.00;;;7.30;;
29938;SDS011;16799;50.844;5.304;2024-02-04T02:32:16;14.90;;;8.70;;
29938;SDS011;16799;50.844;5.304;2024-02-04T02:34:43;7.43;;;6.73;;
29938;SDS011;16799;50.844;5.304;2024-02-04T02:40:26;8.00;;;7.20;;
29938;SDS011;16799;50.844;5.304;2024-02-04T02:42:52;9.30;;;6.83;;
29938;SDS011;16799;50.844;5.304;2024-02-04T02:45:19;8.27;;;7.03;;
29938;SDS011;16799;50.844;5.304;2024-02-04T02:47:47;8.23;;;7.43;;
29938;SDS011;16799;50.844;5.304;2024-02-04T02:50:14;8.70;;;7.80;;
29938;SDS011;16799;50.844;5.304;2024-02-04T02:52:40;7.70;;;6.93;;
29938;SDS011;16799;50.844;5.304;2024-02-04T02:55:05;9.60;;;8.27;;
29938;SDS011;16799;50.844;5.304;2024-02-04T02:57:31;9.83;;;7.97;;
29938;SDS011;16799;50.844;5.304;2024-02-04T02:59:57;9.60;;;6.73;;
29938;SDS011;16799;50.844;5.304;2024-02-04T03:02:22;14.00;;;7.20;;
29938;SDS011;16799;50.844;5.304;2024-02-04T03:04:48;8.87;;;6.50;;
29938;SDS011;16799;50.844;5.304;2024-02-04T03:07:13;8.67;;;7.80;;
29938;SDS011;16799;50.844;5.304;2024-02-04T03:09:39;10.27;;;7.33;;
29938;SDS011;16799;50.844;5.304;2024-02-04T03:12:05;7.27;;;6.60;;
29938;SDS011;16799;50.844;5.304;2024-02-04T03:14:31;10.10;;;8.07;;
29938;SDS011;16799;50.844;5.304;2024-02-04T03:16:56;7.73;;;6.60;;
29938;SDS011;16799;50.844;5.304;2024-02-04T03:19:22;12.67;;;6.77;;
29938;SDS011;16799;50.844;5.304;2024-02-04T03:21:48;8.73;;;7.40;;
29938;SDS011;16799;50.844;5.304;2024-02-04T03:24:13;7.87;;;6.87;;
29938;SDS011;16799;50.844;5.304;2024-02-04T03:26:39;8.30;;;6.97;;
29938;SDS011;16799;50.844;5.304;2024-02-04T03:29:04;10.07;;;8.10;;
29938;SDS011;16799;50.844;5.304;2024-02-04T03:31:30;9.00;;;6.33;;
29938;SDS011;16799;50.844;5.304;2024-02-04T03:33:56;6.77;;;6.07;;
29938;SDS011;16799;50.844;5.304;2024-02-04T03:36:22;6.30;;;5.80;;
29938;SDS011;16799;50.844;5.304;2024-02-04T03:38:49;9.30;;;7.60;;
29938;SDS011;16799;50.844;5.304;2024-02-04T03:41:16;6.13;;;5.63;;
29938;SDS011;16799;50.844;5.304;2024-02-04T03:43:41;7.80;;;6.17;;
29938;SDS011;16799;50.844;5.304;2024-02-04T03:46:07;10.80;;;6.70;;
29938;SDS011;16799;50.844;5.304;2024-02-04T03:48:33;9.20;;;7.93;;
29938;SDS011;16799;50.844;5.304;2024-02-04T03:51:00;7.10;;;6.50;;
29938;SDS011;16799;50.844;5.304;2024-02-04T03:53:26;11.10;;;8.67;;
29938;SDS011;16799;50.844;5.304;2024-02-04T03:55:52;8.90;;;7.90;;
29938;SDS011;16799;50.844;5.304;2024-02-04T03:58:19;8.80;;;7.40;;
29938;SDS011;16799;50.844;5.304;2024-02-04T04:00:45;8.50;;;6.70;;
29938;SDS011;16799;50.844;5.304;2024-02-04T04:03:10;7.50;;;6.70;;
29938;SDS011;16799;50.844;5.304;2024-02-04T04:05:36;9.47;;;8.47;;
29938;SDS011;16799;50.844;5.304;2024-02-04T04:08:02;7.23;;;6.53;;
29938;SDS011;16799;50.844;5.304;2024-02-04T04:10:27;7.83;;;7.00;;
29938;SDS011;16799;50.844;5.304;2024-02-04T04:12:53;10.10;;;6.07;;
29938;SDS011;16799;50.844;5.304;2024-02-04T04:15:19;7.70;;;6.97;;
29938;SDS011;16799;50.844;5.304;2024-02-04T04:17:44;6.83;;;6.13;;
29938;SDS011;16799;50.844;5.304;2024-02-04T04:20:11;9.07;;;7.87;;
29938;SDS011;16799;50.844;5.304;2024-02-04T04:22:40;8.10;;;7.40;;
29938;SDS011;16799;50.844;5.304;2024-02-04T04:25:06;8.70;;;6.97;;
29938;SDS011;16799;50.844;5.304;2024-02-04T04:27:32;8.80;;;6.63;;
29938;SDS011;16799;50.844;5.304;2024-02-04T04:29:57;15.00;;;7.80;;
29938;SDS011;16799;50.844;5.304;2024-02-04T04:32:23;7.77;;;6.90;;
29938;SDS011;16799;50.844;5.304;2024-02-04T04:34:48;7.17;;;6.53;;
29938;SDS011;16799;50.844;5.304;2024-02-04T04:37:14;9.40;;;6.93;;
29938;SDS011;16799;50.844;5.304;2024-02-04T04:39:40;10.17;;;7.00;;
29938;SDS011;16799;50.844;5.304;2024-02-04T04:42:05;6.67;;;6.10;;
29938;SDS011;16799;50.844;5.304;2024-02-04T04:44:31;10.63;;;7.20;;
29938;SDS011;16799;50.844;5.304;2024-02-04T04:46:57;9.47;;;6.77;;
29938;SDS011;16799;50.844;5.304;2024-02-04T04:49:22;9.97;;;7.47;;
29938;SDS011;16799;50.844;5.304;2024-02-04T04:51:48;7.37;;;6.17;;
29938;SDS011;16799;50.844;5.304;2024-02-04T04:54:13;16.13;;;7.40;;
29938;SDS011;16799;50.844;5.304;2024-02-04T04:56:39;10.63;;;6.93;;
29938;SDS011;16799;50.844;5.304;2024-02-04T04:59:06;9.60;;;6.70;;
29938;SDS011;16799;50.844;5.304;2024-02-04T05:01:32;9.67;;;6.27;;
29938;SDS011;16799;50.844;5.304;2024-02-04T05:03:58;7.73;;;6.40;;
29938;SDS011;16799;50.844;5.304;2024-02-04T05:06:25;6.20;;;5.60;;
29938;SDS011;16799;50.844;5.304;2024-02-04T05:08:52;10.67;;;5.83;;
29938;SDS011;16799;50.844;5.304;2024-02-04T05:11:18;8.30;;;5.53;;
29938;SDS011;16799;50.844;5.304;2024-02-04T05:13:43;11.80;;;7.43;;
29938;SDS011;16799;50.844;5.304;2024-02-04T05:16:09;7.37;;;6.50;;
29938;SDS011;16799;50.844;5.304;2024-02-04T05:18:35;6.20;;;5.63;;
29938;SDS011;16799;50.844;5.304;2024-02-04T05:21:01;7.50;;;6.80;;
29938;SDS011;16799;50.844;5.304;2024-02-04T05:23:27;6.40;;;5.70;;
29938;SDS011;16799;50.844;5.304;2024-02-04T05:25:53;6.37;;;5.40;;
29938;SDS011;16799;50.844;5.304;2024-02-04T05:28:19;6.37;;;5.50;;
29938;SDS011;16799;50.844;5.304;2024-02-04T05:30:44;10.93;;;6.67;;
29938;SDS011;16799;50.844;5.304;2024-02-04T05:33:13;8.57;;;6.37;;
29938;SDS011;16799;50.844;5.304;2024-02-04T05:35:39;7.10;;;5.83;;
29938;SDS011;16799;50.844;5.304;2024-02-04T05:38:07;5.20;;;4.70;;
29938;SDS011;16799;50.844;5.304;2024-02-04T05:40:33;4.73;;;4.33;;
29938;SDS011;16799;50.844;5.304;2024-02-04T05:42:59;7.20;;;5.07;;
29938;SDS011;16799;50.844;5.304;2024-02-04T05:45:24;6.63;;;5.23;;
29938;SDS011;16799;50.844;5.304;2024-02-04T05:47:50;6.80;;;5.17;;
29938;SDS011;16799;50.844;5.304;2024-02-04T05:50:16;4.90;;;4.33;;
29938;SDS011;16799;50.844;5.304;2024-02-04T05:52:41;6.10;;;4.57;;
29938;SDS011;16799;50.844;5.304;2024-02-04T05:55:09;5.47;;;4.80;;
29938;SDS011;16799;50.844;5.304;2024-02-04T05:57:35;5.63;;;5.23;;
29938;SDS011;16799;50.844;5.304;2024-02-04T06:00:01;6.23;;;5.73;;
29938;SDS011;16799;50.844;5.304;2024-02-04T06:02:26;5.83;;;5.23;;
29938;SDS011;16799;50.844;5.304;2024-02-04T06:04:52;6.93;;;5.83;;
29938;SDS011;16799;50.844;5.304;2024-02-04T06:07:17;8.67;;;4.93;;
29938;SDS011;16799;50.844;5.304;2024-02-04T06:09:43;6.47;;;5.47;;
29938;SDS011;16799;50.844;5.304;2024-02-04T06:12:09;7.47;;;5.20;;
29938;SDS011;16799;50.844;5.304;2024-02-04T06:14:34;7.17;;;5.33;;
29938;SDS011;16799;50.844;5.304;2024-02-04T06:17:01;7.20;;;5.27;;
29938;SDS011;16799;50.844;5.304;2024-02-04T06:19:27;13.83;;;5.77;;
29938;SDS011;16799;50.844;5.304;2024-02-04T06:21:52;7.70;;;5.40;;
29938;SDS011;16799;50.844;5.304;2024-02-04T06:24:18;6.60;;;5.30;;
29938;SDS011;16799;50.844;5.304;2024-02-04T06:26:45;8.30;;;5.67;;
29938;SDS011;16799;50.844;5.304;2024-02-04T06:29:11;5.07;;;4.70;;
29938;SDS011;16799;50.844;5.304;2024-02-04T06:31:36;5.40;;;4.90;;
29938;SDS011;16799;50.844;5.304;2024-02-04T06:34:02;6.77;;;5.20;;
29938;SDS011;16799;50.844;5.304;2024-02-04T06:36:27;5.57;;;4.93;;
29938;SDS011;16799;50.844;5.304;2024-02-04T06:38:53;5.67;;;5.20;;
29938;SDS011;16799;50.844;5.304;2024-02-04T06:41:19;7.23;;;5.27;;
29938;SDS011;16799;50.844;5.304;2024-02-04T06:43:44;6.80;;;5.93;;
29938;SDS011;16799;50.844;5.304;2024-02-04T06:46:11;7.77;;;6.07;;
29938;SDS011;16799;50.844;5.304;2024-02-04T06:48:36;10.33;;;6.80;;
29938;SDS011;16799;50.844;5.304;2024-02-04T06:51:02;5.87;;;5.23;;
29938;SDS011;16799;50.844;5.304;2024-02-04T06:53:28;8.63;;;6.50;;
29938;SDS011;16799;50.844;5.304;2024-02-04T06:55:53;6.20;;;5.60;;
29938;SDS011;16799;50.844;5.304;2024-02-04T06:58:19;7.53;;;5.03;;
29938;SDS011;16799;50.844;5.304;2024-02-04T07:00:45;7.77;;;6.03;;
29938;SDS011;16799;50.844;5.304;2024-02-04T07:03:11;8.47;;;5.70;;
29938;SDS011;16799;50.844;5.304;2024-02-04T07:05:37;8.63;;;4.60;;
29938;SDS011;16799;50.844;5.304;2024-02-04T07:08:03;6.07;;;5.40;;
29938;SDS011;16799;50.844;5.304;2024-02-04T07:10:29;7.50;;;4.70;;
29938;SDS011;16799;50.844;5.304;2024-02-04T07:12:54;6.23;;;5.40;;
29938;SDS011;16799;50.844;5.304;2024-02-04T07:15:20;8.33;;;5.43;;
29938;SDS011;16799;50.844;5.304;2024-02-04T07:17:45;6.17;;;5.27;;
29938;SDS011;16799;50.844;5.304;2024-02-04T07:20:11;6.10;;;4.80;;
29938;SDS011;16799;50.844;5.304;2024-02-04T07:22:37;7.00;;;4.97;;
29938;SDS011;16799;50.844;5.304;2024-02-04T07:25:02;8.17;;;7.07;;
29938;SDS011;16799;50.844;5.304;2024-02-04T07:27:28;7.50;;;6.13;;
29938;SDS011;16799;50.844;5.304;2024-02-04T07:29:54;5.80;;;5.23;;
29938;SDS011;16799;50.844;5.304;2024-02-04T07:32:20;11.90;;;6.47;;
29938;SDS011;16799;50.844;5.304;2024-02-04T07:34:46;8.17;;;5.27;;
29938;SDS011;16799;50.844;5.304;2024-02-04T07:37:11;7.27;;;5.83;;
29938;SDS011;16799;50.844;5.304;2024-02-04T07:39:37;9.80;;;6.10;;
29938;SDS011;16799;50.844;5.304;2024-02-04T07:42:03;4.80;;;4.40;;
29938;SDS011;16799;50.844;5.304;2024-02-04T07:44:28;5.23;;;4.83;;
29938;SDS011;16799;50.844;5.304;2024-02-04T07:46:54;3.97;;;3.67;;
29938;SDS011;16799;50.844;5.304;2024-02-04T07:49:20;4.90;;;4.50;;
29938;SDS011;16799;50.844;5.304;2024-02-04T07:51:46;4.80;;;4.40;;
29938;SDS011;16799;50.844;5.304;2024-02-04T07:54:11;4.03;;;3.73;;
29938;SDS011;16799;50.844;5.304;2024-02-04T07:56:37;4.00;;;3.70;;
29938;SDS011;16799;50.844;5.304;2024-02-04T07:59:03;5.67;;;5.03;;
29938;SDS011;16799;50.844;5.304;2024-02-04T08:01:29;5.90;;;4.90;;
29938;SDS011;16799;50.844;5.304;2024-02-04T08:03:55;32.10;;;4.40;;
29938;SDS011;16799;50.844;5.304;2024-02-04T08:06:21;5.03;;;4.43;;
29938;SDS011;16799;50.844;5.304;2024-02-04T08:08:47;7.00;;;4.33;;
29938;SDS011;16799;50.844;5.304;2024-02-04T08:11:16;6.37;;;4.20;;
29938;SDS011;16799;50.844;5.304;2024-02-04T08:13:43;5.27;;;4.47;;
29938;SDS011;16799;50.844;5.304;2024-02-04T08:16:09;6.47;;;5.83;;
29938;SDS011;16799;50.844;5.304;2024-02-04T08:18:35;8.00;;;4.60;;
29938;SDS011;16799;50.844;5.304;2024-02-04T08:21:00;5.30;;;4.83;;
29938;SDS011;16799;50.844;5.304;2024-02-04T08:23:26;5.60;;;5.10;;
29938;SDS011;16799;50.844;5.304;2024-02-04T08:25:52;5.70;;;5.20;;
29938;SDS011;16799;50.844;5.304;2024-02-04T08:28:17;6.97;;;5.10;;
29938;SDS011;16799;50.844;5.304;2024-02-04T08:30:43;11.50;;;6.27;;
29938;SDS011;16799;50.844;5.304;2024-02-04T08:33:09;8.93;;;6.50;;
29938;SDS011;16799;50.844;5.304;2024-02-04T08:35:34;12.67;;;5.70;;
29938;SDS011;16799;50.844;5.304;2024-02-04T08:38:00;9.57;;;6.10;;
29938;SDS011;16799;50.844;5.304;2024-02-04T08:40:25;10.23;;;6.97;;
29938;SDS011;16799;50.844;5.304;2024-02-04T08:42:51;8.87;;;6.17;;
29938;SDS011;16799;50.844;5.304;2024-02-04T08:45:17;12.77;;;6.50;;
29938;SDS011;16799;50.844;5.304;2024-02-04T08:47:42;13.70;;;7.37;;
29938;SDS011;16799;50.844;5.304;2024-02-04T08:50:09;13.57;;;6.03;;
29938;SDS011;16799;50.844;5.304;2024-02-04T08:52:37;14.30;;;7.13;;
29938;SDS011;16799;50.844;5.304;2024-02-04T08:55:02;10.20;;;6.83;;
29938;SDS011;16799;50.844;5.304;2024-02-04T08:57:29;15.67;;;9.60;;
29938;SDS011;16799;50.844;5.304;2024-02-04T08:59:54;9.50;;;6.77;;
29938;SDS011;16799;50.844;5.304;2024-02-04T09:02:20;15.63;;;7.00;;
29938;SDS011;16799;50.844;5.304;2024-02-04T09:04:46;16.47;;;7.63;;
29938;SDS011;16799;50.844;5.304;2024-02-04T09:07:11;18.53;;;8.10;;
29938;SDS011;16799;50.844;5.304;2024-02-04T09:09:37;18.93;;;8.70;;
29938;SDS011;16799;50.844;5.304;2024-02-04T09:12:03;13.10;;;8.47;;
29938;SDS011;16799;50.844;5.304;2024-02-04T09:14:29;21.27;;;10.40;;
29938;SDS011;16799;50.844;5.304;2024-02-04T09:16:54;15.10;;;7.97;;
29938;SDS011;16799;50.844;5.304;2024-02-04T09:19:20;17.70;;;8.73;;
29938;SDS011;16799;50.844;5.304;2024-02-04T09:21:45;26.93;;;11.47;;
29938;SDS011;16799;50.844;5.304;2024-02-04T09:24:11;11.17;;;9.47;;
29938;SDS011;16799;50.844;5.304;2024-02-04T09:26:37;14.40;;;8.87;;
29938;SDS011;16799;50.844;5.304;2024-02-04T09:29:02;14.07;;;7.63;;
29938;SDS011;16799;50.844;5.304;2024-02-04T09:31:28;12.40;;;6.93;;
29938;SDS011;16799;50.844;5.304;2024-02-04T09:33:53;12.87;;;7.70;;
29938;SDS011;16799;50.844;5.304;2024-02-04T09:36:19;22.83;;;7.40;;
29938;SDS011;16799;50.844;5.304;2024-02-04T09:38:47;11.80;;;6.20;;
29938;SDS011;16799;50.844;5.304;2024-02-04T09:41:13;8.67;;;6.47;;
29938;SDS011;16799;50.844;5.304;2024-02-04T09:43:38;12.10;;;6.00;;
29938;SDS011;16799;50.844;5.304;2024-02-04T09:46:05;10.97;;;6.70;;
29938;SDS011;16799;50.844;5.304;2024-02-04T09:48:31;9.80;;;6.60;;
29938;SDS011;16799;50.844;5.304;2024-02-04T09:50:58;15.47;;;7.63;;
29938;SDS011;16799;50.844;5.304;2024-02-04T09:53:33;10.40;;;7.03;;
29938;SDS011;16799;50.844;5.304;2024-02-04T09:56:03;19.30;;;7.53;;
29938;SDS011;16799;50.844;5.304;2024-02-04T09:58:33;8.00;;;6.63;;
29938;SDS011;16799;50.844;5.304;2024-02-04T10:01:02;6.53;;;5.90;;
29938;SDS011;16799;50.844;5.304;2024-02-04T10:03:29;10.50;;;7.40;;
29938;SDS011;16799;50.844;5.304;2024-02-04T10:05:55;10.37;;;7.00;;
29938;SDS011;16799;50.844;5.304;2024-02-04T10:08:22;12.40;;;7.13;;
29938;SDS011;16799;50.844;5.304;2024-02-04T10:10:48;9.00;;;6.30;;
29938;SDS011;16799;50.844;5.304;2024-02-04T10:13:14;12.93;;;6.00;;
29938;SDS011;16799;50.844;5.304;2024-02-04T10:15:39;19.80;;;6.30;;
29938;SDS011;16799;50.844;5.304;2024-02-04T10:18:06;5.27;;;4.83;;
29938;SDS011;16799;50.844;5.304;2024-02-04T10:20:32;5.37;;;4.40;;
29938;SDS011;16799;50.844;5.304;2024-02-04T10:22:58;15.73;;;6.60;;
29938;SDS011;16799;50.844;5.304;2024-02-04T10:25:24;6.27;;;5.03;;
29938;SDS011;16799;50.844;5.304;2024-02-04T10:27:49;14.60;;;5.50;;
29938;SDS011;16799;50.844;5.304;2024-02-04T10:30:18;5.27;;;4.20;;
29938;SDS011;16799;50.844;5.304;2024-02-04T10:32:44;8.90;;;3.97;;
29938;SDS011;16799;50.844;5.304;2024-02-04T10:35:11;9.70;;;4.40;;
29938;SDS011;16799;50.844;5.304;2024-02-04T10:37:36;4.13;;;3.83;;
29938;SDS011;16799;50.844;5.304;2024-02-04T10:40:02;4.47;;;4.00;;
29938;SDS011;16799;50.844;5.304;2024-02-04T10:42:29;8.60;;;5.10;;
29938;SDS011;16799;50.844;5.304;2024-02-04T10:44:55;6.50;;;3.60;;
29938;SDS011;16799;50.844;5.304;2024-02-04T10:47:24;6.30;;;4.93;;
29938;SDS011;16799;50.844;5.304;2024-02-04T10:49:55;3.80;;;3.30;;
29938;SDS011;16799;50.844;5.304;2024-02-04T10:52:23;4.60;;;3.90;;
29938;SDS011;16799;50.844;5.304;2024-02-04T10:54:52;9.50;;;4.43;;
29938;SDS011;16799;50.844;5.304;2024-02-04T10:57:21;3.27;;;2.90;;
29938;SDS011;16799;50.844;5.304;2024-02-04T10:59:48;18.40;;;4.33;;
29938;SDS011;16799;50.844;5.304;2024-02-04T11:02:17;4.33;;;3.43;;
29938;SDS011;16799;50.844;5.304;2024-02-04T11:04:44;4.20;;;3.77;;
29938;SDS011;16799;50.844;5.304;2024-02-04T11:07:13;5.83;;;4.27;;
29938;SDS011;16799;50.844;5.304;2024-02-04T11:09:40;4.23;;;3.93;;
29938;SDS011;16799;50.844;5.304;2024-02-04T11:12:11;6.40;;;5.80;;
29938;SDS011;16799;50.844;5.304;2024-02-04T11:14:40;5.23;;;4.53;;
29938;SDS011;16799;50.844;5.304;2024-02-04T11:17:13;9.60;;;5.13;;
29938;SDS011;16799;50.844;5.304;2024-02-04T11:23:22;5.07;;;4.70;;
29938;SDS011;16799;50.844;5.304;2024-02-04T11:25:54;9.87;;;4.93;;
29938;SDS011;16799;50.844;5.304;2024-02-04T11:28:21;6.77;;;5.70;;
29938;SDS011;16799;50.844;5.304;2024-02-04T11:30:48;6.33;;;5.60;;
29938;SDS011;16799;50.844;5.304;2024-02-04T11:33:18;5.20;;;4.90;;
29938;SDS011;16799;50.844;5.304;2024-02-04T11:35:46;5.90;;;5.40;;
29938;SDS011;16799;50.844;5.304;2024-02-04T11:38:12;4.77;;;4.43;;
29938;SDS011;16799;50.844;5.304;2024-02-04T11:40:43;4.63;;;3.70;;
29938;SDS011;16799;50.844;5.304;2024-02-04T11:43:10;11.60;;;4.40;;
29938;SDS011;16799;50.844;5.304;2024-02-04T11:45:37;4.80;;;4.40;;
29938;SDS011;16799;50.844;5.304;2024-02-04T11:48:07;4.60;;;4.10;;
29938;SDS011;16799;50.844;5.304;2024-02-04T11:50:34;4.70;;;4.17;;
29938;SDS011;16799;50.844;5.304;2024-02-04T11:53:10;3.90;;;3.60;;
29938;SDS011;16799;50.844;5.304;2024-02-04T11:55:41;4.13;;;3.17;;
29938;SDS011;16799;50.844;5.304;2024-02-04T11:58:07;3.70;;;3.40;;
29938;SDS011;16799;50.844;5.304;2024-02-04T12:00:34;3.80;;;3.60;;
29938;SDS011;16799;50.844;5.304;2024-02-04T12:03:00;2.93;;;2.73;;
29938;SDS011;16799;50.844;5.304;2024-02-04T12:05:27;3.33;;;3.13;;
29938;SDS011;16799;50.844;5.304;2024-02-04T12:07:53;3.70;;;2.33;;
29938;SDS011;16799;50.844;5.304;2024-02-04T12:10:19;3.67;;;2.73;;
29938;SDS011;16799;50.844;5.304;2024-02-04T12:12:46;4.20;;;3.80;;
29938;SDS011;16799;50.844;5.304;2024-02-04T12:15:12;4.07;;;2.53;;
29938;SDS011;16799;50.844;5.304;2024-02-04T12:17:39;2.53;;;2.43;;
29938;SDS011;16799;50.844;5.304;2024-02-04T12:20:05;3.03;;;2.83;;
29938;SDS011;16799;50.844;5.304;2024-02-04T12:22:31;3.27;;;3.07;;
29938;SDS011;16799;50.844;5.304;2024-02-04T12:24:58;2.90;;;2.70;;
29938;SDS011;16799;50.844;5.304;2024-02-04T12:27:25;3.37;;;2.50;;
29938;SDS011;16799;50.844;5.304;2024-02-04T12:29:52;3.43;;;3.23;;
29938;SDS011;16799;50.844;5.304;2024-02-04T12:32:17;3.43;;;3.00;;
29938;SDS011;16799;50.844;5.304;2024-02-04T12:34:47;2.43;;;2.23;;
29938;SDS011;16799;50.844;5.304;2024-02-04T12:37:13;3.23;;;3.03;;
29938;SDS011;16799;50.844;5.304;2024-02-04T12:39:39;3.23;;;3.03;;
29938;SDS011;16799;50.844;5.304;2024-02-04T12:42:05;2.60;;;2.40;;
29938;SDS011;16799;50.844;5.304;2024-02-04T12:44:30;2.50;;;2.30;;
29938;SDS011;16799;50.844;5.304;2024-02-04T12:46:56;6.20;;;3.40;;
29938;SDS011;16799;50.844;5.304;2024-02-04T12:49:22;2.77;;;2.57;;
29938;SDS011;16799;50.844;5.304;2024-02-04T12:51:48;3.27;;;3.07;;
29938;SDS011;16799;50.844;5.304;2024-02-04T12:54:16;4.43;;;3.50;;
29938;SDS011;16799;50.844;5.304;2024-02-04T12:56:44;2.57;;;2.47;;
29938;SDS011;16799;50.844;5.304;2024-02-04T12:59:24;2.93;;;2.40;;
29938;SDS011;16799;50.844;5.304;2024-02-04T13:02:03;4.13;;;3.30;;
29938;SDS011;16799;50.844;5.304;2024-02-04T13:04:34;4.83;;;3.60;;
29938;SDS011;16799;50.844;5.304;2024-02-04T13:07:07;3.00;;;2.80;;
29938;SDS011;16799;50.844;5.304;2024-02-04T13:09:42;3.40;;;3.20;;
29938;SDS011;16799;50.844;5.304;2024-02-04T13:12:10;4.37;;;4.00;;
29938;SDS011;16799;50.844;5.304;2024-02-04T13:14:39;5.30;;;3.90;;
29938;SDS011;16799;50.844;5.304;2024-02-04T13:17:06;4.83;;;2.87;;
29938;SDS011;16799;50.844;5.304;2024-02-04T13:19:35;10.83;;;4.97;;
29938;SDS011;16799;50.844;5.304;2024-02-04T13:22:03;4.13;;;3.90;;
29938;SDS011;16799;50.844;5.304;2024-02-04T13:24:29;6.40;;;4.20;;
29938;SDS011;16799;50.844;5.304;2024-02-04T13:26:56;4.43;;;3.93;;
29938;SDS011;16799;50.844;5.304;2024-02-04T13:29:22;11.23;;;4.10;;
29938;SDS011;16799;50.844;5.304;2024-02-04T13:31:48;3.90;;;3.60;;
29938;SDS011;16799;50.844;5.304;2024-02-04T13:34:13;4.10;;;3.70;;
29938;SDS011;16799;50.844;5.304;2024-02-04T13:36:40;3.77;;;3.57;;
29938;SDS011;16799;50.844;5.304;2024-02-04T13:39:06;4.53;;;4.30;;
29938;SDS011;16799;50.844;5.304;2024-02-04T13:41:31;6.50;;;3.97;;
29938;SDS011;16799;50.844;5.304;2024-02-04T13:43:57;3.00;;;2.80;;
29938;SDS011;16799;50.844;5.304;2024-02-04T13:46:23;4.47;;;4.17;;
29938;SDS011;16799;50.844;5.304;2024-02-04T13:48:49;3.10;;;2.90;;
29938;SDS011;16799;50.844;5.304;2024-02-04T13:51:15;3.93;;;3.63;;
29938;SDS011;16799;50.844;5.304;2024-02-04T13:53:40;9.97;;;3.90;;
29938;SDS011;16799;50.844;5.304;2024-02-04T13:56:06;5.30;;;2.90;;
29938;SDS011;16799;50.844;5.304;2024-02-04T13:58:31;2.30;;;2.20;;
29938;SDS011;16799;50.844;5.304;2024-02-04T14:00:57;5.80;;;2.77;;
29938;SDS011;16799;50.844;5.304;2024-02-04T14:03:24;3.17;;;2.97;;
29938;SDS011;16799;50.844;5.304;2024-02-04T14:05:50;2.30;;;2.20;;
29938;SDS011;16799;50.844;5.304;2024-02-04T14:08:16;2.53;;;2.33;;
29938;SDS011;16799;50.844;5.304;2024-02-04T14:10:41;2.27;;;2.17;;
29938;SDS011;16799;50.844;5.304;2024-02-04T14:13:07;2.43;;;2.33;;
29938;SDS011;16799;50.844;5.304;2024-02-04T14:15:33;2.17;;;2.00;;
29938;SDS011;16799;50.844;5.304;2024-02-04T14:17:59;2.80;;;1.53;;
29938;SDS011;16799;50.844;5.304;2024-02-04T14:20:25;2.10;;;2.00;;
29938;SDS011;16799;50.844;5.304;2024-02-04T14:22:51;3.13;;;2.10;;
29938;SDS011;16799;50.844;5.304;2024-02-04T14:25:17;2.40;;;2.30;;
29938;SDS011;16799;50.844;5.304;2024-02-04T14:27:43;2.03;;;1.93;;
29938;SDS011;16799;50.844;5.304;2024-02-04T14:30:09;1.70;;;1.60;;
29938;SDS011;16799;50.844;5.304;2024-02-04T14:32:35;6.80;;;2.17;;
29938;SDS011;16799;50.844;5.304;2024-02-04T14:35:01;8.10;;;3.07;;
29938;SDS011;16799;50.844;5.304;2024-02-04T14:37:29;2.27;;;2.17;;
29938;SDS011;16799;50.844;5.304;2024-02-04T14:39:57;3.50;;;2.23;;
29938;SDS011;16799;50.844;5.304;2024-02-04T14:42:25;2.17;;;2.03;;
29938;SDS011;16799;50.844;5.304;2024-02-04T14:44:51;4.83;;;2.73;;
29938;SDS011;16799;50.844;5.304;2024-02-04T14:47:17;3.10;;;2.23;;
29938;SDS011;16799;50.844;5.304;2024-02-04T14:49:43;3.50;;;1.63;;